sensor_id;sensor_type;location;lat;lon;timestamp;P1;durP1;ratioP1;P2;durP2;ratioP2
25663;SDS011;13522;50.018;20.014;2023-12-20T00:01:35;22.83;;;12.00;;
25663;SDS011;13522;50.018;20.014;2023-12-20T00:04:48;24.70;;;12.43;;
25663;SDS011;13522;50.018;20.014;2023-12-20T00:08:01;25.43;;;13.68;;
25663;SDS011;13522;50.018;20.014;2023-12-20T00:11:14;28.13;;;13.88;;
25663;SDS011;13522;50.018;20.014;2023-12-20T00:14:27;31.05;;;15.45;;
25663;SDS011;13522;50.018;20.014;2023-12-20T00:17:39;27.83;;;14.95;;
25663;SDS011;13522;50.018;20.014;2023-12-20T00:20:52;30.53;;;15.08;;
25663;SDS011;13522;50.018;20.014;2023-12-20T00:24:06;30.25;;;15.18;;
25663;SDS011;13522;50.018;20.014;2023-12-20T00:27:18;30.35;;;15.48;;
25663;SDS011;13522;50.018;20.014;2023-12-20T00:30:30;29.15;;;14.98;;
25663;SDS011;13522;50.018;20.014;2023-12-20T00:33:43;29.18;;;15.13;;
25663;SDS011;13522;50.018;20.014;2023-12-20T00:36:55;31.18;;;15.13;;
25663;SDS011;13522;50.018;20.014;2023-12-20T00:40:08;36.33;;;15.28;;
25663;SDS011;13522;50.018;20.014;2023-12-20T00:43:22;34.45;;;17.23;;
25663;SDS011;13522;50.018;20.014;2023-12-20T00:46:35;34.15;;;16.00;;
25663;SDS011;13522;50.018;20.014;2023-12-20T00:49:47;33.25;;;15.33;;
25663;SDS011;13522;50.018;20.014;2023-12-20T00:53:00;29.03;;;13.78;;
25663;SDS011;13522;50.018;20.014;2023-12-20T00:56:12;26.75;;;14.18;;
25663;SDS011;13522;50.018;20.014;2023-12-20T00:59:25;30.10;;;14.15;;
25663;SDS011;13522;50.018;20.014;2023-12-20T01:02:37;33.75;;;15.00;;
25663;SDS011;13522;50.018;20.014;2023-12-20T01:05:53;33.13;;;15.70;;
25663;SDS011;13522;50.018;20.014;2023-12-20T01:09:05;30.98;;;14.48;;
25663;SDS011;13522;50.018;20.014;2023-12-20T01:12:18;29.90;;;14.68;;
25663;SDS011;13522;50.018;20.014;2023-12-20T01:15:31;35.18;;;15.88;;
25663;SDS011;13522;50.018;20.014;2023-12-20T01:18:44;30.30;;;14.53;;
25663;SDS011;13522;50.018;20.014;2023-12-20T01:21:56;33.48;;;15.90;;
25663;SDS011;13522;50.018;20.014;2023-12-20T01:25:09;35.80;;;16.43;;
25663;SDS011;13522;50.018;20.014;2023-12-20T01:28:22;31.58;;;15.65;;
25663;SDS011;13522;50.018;20.014;2023-12-20T01:31:35;32.20;;;15.58;;
25663;SDS011;13522;50.018;20.014;2023-12-20T01:34:47;30.33;;;15.08;;
25663;SDS011;13522;50.018;20.014;2023-12-20T01:38:02;28.45;;;14.85;;
25663;SDS011;13522;50.018;20.014;2023-12-20T01:41:17;33.28;;;15.65;;
25663;SDS011;13522;50.018;20.014;2023-12-20T01:44:30;31.73;;;15.55;;
25663;SDS011;13522;50.018;20.014;2023-12-20T01:47:42;28.90;;;14.15;;
25663;SDS011;13522;50.018;20.014;2023-12-20T01:50:55;33.98;;;15.78;;
25663;SDS011;13522;50.018;20.014;2023-12-20T01:54:11;30.15;;;14.65;;
25663;SDS011;13522;50.018;20.014;2023-12-20T01:57:24;32.23;;;14.23;;
25663;SDS011;13522;50.018;20.014;2023-12-20T02:00:37;24.28;;;12.95;;
25663;SDS011;13522;50.018;20.014;2023-12-20T02:03:52;21.43;;;12.33;;
25663;SDS011;13522;50.018;20.014;2023-12-20T02:07:08;26.80;;;12.25;;
25663;SDS011;13522;50.018;20.014;2023-12-20T02:10:22;22.53;;;11.03;;
25663;SDS011;13522;50.018;20.014;2023-12-20T02:13:35;21.40;;;9.90;;
25663;SDS011;13522;50.018;20.014;2023-12-20T02:16:48;18.88;;;9.23;;
25663;SDS011;13522;50.018;20.014;2023-12-20T02:20:00;14.80;;;7.88;;
25663;SDS011;13522;50.018;20.014;2023-12-20T02:23:14;13.35;;;7.20;;
25663;SDS011;13522;50.018;20.014;2023-12-20T02:26:27;11.98;;;6.73;;
25663;SDS011;13522;50.018;20.014;2023-12-20T02:29:39;10.70;;;5.48;;
25663;SDS011;13522;50.018;20.014;2023-12-20T02:32:52;11.83;;;5.98;;
25663;SDS011;13522;50.018;20.014;2023-12-20T02:36:05;11.90;;;5.20;;
25663;SDS011;13522;50.018;20.014;2023-12-20T02:39:19;8.43;;;5.10;;
25663;SDS011;13522;50.018;20.014;2023-12-20T02:42:32;7.68;;;4.85;;
25663;SDS011;13522;50.018;20.014;2023-12-20T02:45:44;7.30;;;4.58;;
25663;SDS011;13522;50.018;20.014;2023-12-20T02:48:57;10.55;;;5.05;;
25663;SDS011;13522;50.018;20.014;2023-12-20T02:52:10;7.63;;;4.53;;
25663;SDS011;13522;50.018;20.014;2023-12-20T02:55:25;7.15;;;4.28;;
25663;SDS011;13522;50.018;20.014;2023-12-20T02:58:38;7.33;;;4.13;;
25663;SDS011;13522;50.018;20.014;2023-12-20T03:01:50;9.65;;;4.40;;
25663;SDS011;13522;50.018;20.014;2023-12-20T03:05:03;7.00;;;4.30;;
25663;SDS011;13522;50.018;20.014;2023-12-20T03:08:18;5.93;;;4.08;;
25663;SDS011;13522;50.018;20.014;2023-12-20T03:11:32;6.85;;;4.08;;
25663;SDS011;13522;50.018;20.014;2023-12-20T03:14:47;6.93;;;4.15;;
25663;SDS011;13522;50.018;20.014;2023-12-20T03:18:00;8.10;;;4.08;;
25663;SDS011;13522;50.018;20.014;2023-12-20T03:21:13;6.55;;;4.40;;
25663;SDS011;13522;50.018;20.014;2023-12-20T03:24:26;7.18;;;4.60;;
25663;SDS011;13522;50.018;20.014;2023-12-20T03:27:38;8.15;;;5.13;;
25663;SDS011;13522;50.018;20.014;2023-12-20T03:30:52;8.03;;;5.00;;
25663;SDS011;13522;50.018;20.014;2023-12-20T03:34:04;7.03;;;4.40;;
25663;SDS011;13522;50.018;20.014;2023-12-20T03:37:17;7.70;;;4.80;;
25663;SDS011;13522;50.018;20.014;2023-12-20T03:40:30;7.55;;;4.68;;
25663;SDS011;13522;50.018;20.014;2023-12-20T03:43:43;7.50;;;4.85;;
25663;SDS011;13522;50.018;20.014;2023-12-20T03:46:55;7.98;;;4.73;;
25663;SDS011;13522;50.018;20.014;2023-12-20T03:50:08;7.25;;;4.58;;
25663;SDS011;13522;50.018;20.014;2023-12-20T03:53:21;9.25;;;4.38;;
25663;SDS011;13522;50.018;20.014;2023-12-20T03:56:36;7.90;;;4.55;;
25663;SDS011;13522;50.018;20.014;2023-12-20T03:59:48;8.48;;;4.40;;
25663;SDS011;13522;50.018;20.014;2023-12-20T04:03:04;7.80;;;4.68;;
25663;SDS011;13522;50.018;20.014;2023-12-20T04:06:19;8.20;;;4.90;;
25663;SDS011;13522;50.018;20.014;2023-12-20T04:09:32;9.85;;;5.18;;
25663;SDS011;13522;50.018;20.014;2023-12-20T04:12:45;9.25;;;5.58;;
25663;SDS011;13522;50.018;20.014;2023-12-20T04:15:58;16.30;;;5.25;;
25663;SDS011;13522;50.018;20.014;2023-12-20T04:19:10;8.90;;;4.93;;
25663;SDS011;13522;50.018;20.014;2023-12-20T04:22:23;9.88;;;5.38;;
25663;SDS011;13522;50.018;20.014;2023-12-20T04:25:36;13.55;;;5.43;;
25663;SDS011;13522;50.018;20.014;2023-12-20T04:28:48;7.25;;;4.78;;
25663;SDS011;13522;50.018;20.014;2023-12-20T04:32:01;10.60;;;5.30;;
25663;SDS011;13522;50.018;20.014;2023-12-20T04:35:15;9.85;;;5.65;;
25663;SDS011;13522;50.018;20.014;2023-12-20T04:38:27;10.55;;;5.43;;
25663;SDS011;13522;50.018;20.014;2023-12-20T04:41:40;9.78;;;4.83;;
25663;SDS011;13522;50.018;20.014;2023-12-20T04:44:54;8.20;;;5.08;;
25663;SDS011;13522;50.018;20.014;2023-12-20T04:48:08;8.58;;;4.93;;
25663;SDS011;13522;50.018;20.014;2023-12-20T04:51:20;14.43;;;5.33;;
25663;SDS011;13522;50.018;20.014;2023-12-20T04:54:33;9.83;;;5.38;;
25663;SDS011;13522;50.018;20.014;2023-12-20T04:57:47;10.35;;;5.53;;
25663;SDS011;13522;50.018;20.014;2023-12-20T05:01:02;9.88;;;5.38;;
25663;SDS011;13522;50.018;20.014;2023-12-20T05:04:17;7.93;;;5.23;;
25663;SDS011;13522;50.018;20.014;2023-12-20T05:07:29;11.58;;;6.83;;
25663;SDS011;13522;50.018;20.014;2023-12-20T05:10:42;9.20;;;5.63;;
25663;SDS011;13522;50.018;20.014;2023-12-20T05:13:58;10.43;;;5.00;;
25663;SDS011;13522;50.018;20.014;2023-12-20T05:17:10;8.55;;;5.05;;
25663;SDS011;13522;50.018;20.014;2023-12-20T05:20:25;8.43;;;4.80;;
25663;SDS011;13522;50.018;20.014;2023-12-20T05:23:38;6.43;;;4.03;;
25663;SDS011;13522;50.018;20.014;2023-12-20T05:26:57;6.48;;;4.25;;
25663;SDS011;13522;50.018;20.014;2023-12-20T05:30:11;5.73;;;4.20;;
25663;SDS011;13522;50.018;20.014;2023-12-20T05:33:26;6.70;;;4.38;;
25663;SDS011;13522;50.018;20.014;2023-12-20T05:36:40;10.18;;;4.15;;
25663;SDS011;13522;50.018;20.014;2023-12-20T05:39:54;10.48;;;5.18;;
25663;SDS011;13522;50.018;20.014;2023-12-20T05:43:09;8.80;;;5.38;;
25663;SDS011;13522;50.018;20.014;2023-12-20T05:46:24;8.45;;;4.60;;
25663;SDS011;13522;50.018;20.014;2023-12-20T05:49:38;10.23;;;4.58;;
25663;SDS011;13522;50.018;20.014;2023-12-20T05:52:51;8.38;;;4.58;;
25663;SDS011;13522;50.018;20.014;2023-12-20T05:56:05;7.83;;;4.75;;
25663;SDS011;13522;50.018;20.014;2023-12-20T05:59:22;7.50;;;4.43;;
25663;SDS011;13522;50.018;20.014;2023-12-20T06:02:36;7.58;;;4.80;;
25663;SDS011;13522;50.018;20.014;2023-12-20T06:05:51;6.20;;;3.80;;
25663;SDS011;13522;50.018;20.014;2023-12-20T06:09:07;7.95;;;4.98;;
25663;SDS011;13522;50.018;20.014;2023-12-20T17:58:11;11.15;;;6.00;;
25663;SDS011;13522;50.018;20.014;2023-12-20T20:49:25;8.18;;;4.58;;
25663;SDS011;13522;50.018;20.014;2023-12-20T21:01:27;10.18;;;5.03;;
25663;SDS011;13522;50.018;20.014;2023-12-20T21:04:41;15.45;;;8.00;;
25663;SDS011;13522;50.018;20.014;2023-12-20T21:07:56;11.53;;;5.38;;
25663;SDS011;13522;50.018;20.014;2023-12-20T21:11:09;9.03;;;4.58;;
25663;SDS011;13522;50.018;20.014;2023-12-20T21:14:24;11.08;;;4.88;;
25663;SDS011;13522;50.018;20.014;2023-12-20T21:17:37;11.28;;;5.45;;
25663;SDS011;13522;50.018;20.014;2023-12-20T21:20:52;10.05;;;5.13;;
25663;SDS011;13522;50.018;20.014;2023-12-20T21:24:31;8.75;;;4.53;;
25663;SDS011;13522;50.018;20.014;2023-12-20T21:27:45;9.55;;;4.10;;
25663;SDS011;13522;50.018;20.014;2023-12-20T21:30:58;6.30;;;3.63;;
25663;SDS011;13522;50.018;20.014;2023-12-20T21:34:11;8.85;;;3.23;;
25663;SDS011;13522;50.018;20.014;2023-12-20T21:37:24;5.08;;;2.83;;
25663;SDS011;13522;50.018;20.014;2023-12-20T21:40:38;4.73;;;2.75;;
25663;SDS011;13522;50.018;20.014;2023-12-20T21:43:52;4.45;;;2.43;;
25663;SDS011;13522;50.018;20.014;2023-12-20T21:47:05;5.00;;;2.53;;
25663;SDS011;13522;50.018;20.014;2023-12-20T21:50:18;7.08;;;3.00;;
25663;SDS011;13522;50.018;20.014;2023-12-20T21:53:31;6.30;;;2.45;;
25663;SDS011;13522;50.018;20.014;2023-12-20T21:56:44;4.70;;;2.80;;
25663;SDS011;13522;50.018;20.014;2023-12-20T21:59:58;6.15;;;2.68;;
25663;SDS011;13522;50.018;20.014;2023-12-20T22:03:17;7.20;;;2.70;;
25663;SDS011;13522;50.018;20.014;2023-12-20T22:06:30;4.28;;;2.33;;
25663;SDS011;13522;50.018;20.014;2023-12-20T22:09:43;3.83;;;2.25;;
25663;SDS011;13522;50.018;20.014;2023-12-20T22:12:59;4.60;;;2.50;;
25663;SDS011;13522;50.018;20.014;2023-12-20T22:16:15;6.30;;;2.90;;
25663;SDS011;13522;50.018;20.014;2023-12-20T22:19:29;6.03;;;2.45;;
25663;SDS011;13522;50.018;20.014;2023-12-20T22:22:42;5.53;;;2.63;;
25663;SDS011;13522;50.018;20.014;2023-12-20T22:25:55;6.23;;;2.83;;
25663;SDS011;13522;50.018;20.014;2023-12-20T22:29:09;4.98;;;2.40;;
25663;SDS011;13522;50.018;20.014;2023-12-20T22:32:25;5.90;;;2.63;;
25663;SDS011;13522;50.018;20.014;2023-12-20T22:35:38;4.98;;;2.48;;
25663;SDS011;13522;50.018;20.014;2023-12-20T22:38:52;8.15;;;2.90;;
25663;SDS011;13522;50.018;20.014;2023-12-20T22:42:05;6.60;;;2.70;;
25663;SDS011;13522;50.018;20.014;2023-12-20T22:45:19;5.85;;;2.90;;
25663;SDS011;13522;50.018;20.014;2023-12-20T22:48:33;6.88;;;2.43;;
25663;SDS011;13522;50.018;20.014;2023-12-20T22:51:47;5.38;;;2.58;;
25663;SDS011;13522;50.018;20.014;2023-12-20T22:55:00;4.75;;;2.35;;
25663;SDS011;13522;50.018;20.014;2023-12-20T22:58:15;3.95;;;2.45;;
25663;SDS011;13522;50.018;20.014;2023-12-20T23:01:28;6.00;;;2.30;;
25663;SDS011;13522;50.018;20.014;2023-12-20T23:04:41;5.65;;;2.65;;
25663;SDS011;13522;50.018;20.014;2023-12-20T23:07:57;5.28;;;2.60;;
25663;SDS011;13522;50.018;20.014;2023-12-20T23:11:09;5.38;;;2.88;;
25663;SDS011;13522;50.018;20.014;2023-12-20T23:14:22;6.73;;;2.70;;
25663;SDS011;13522;50.018;20.014;2023-12-20T23:17:36;6.08;;;2.60;;
25663;SDS011;13522;50.018;20.014;2023-12-20T23:20:49;4.15;;;2.30;;
25663;SDS011;13522;50.018;20.014;2023-12-20T23:24:03;4.63;;;2.20;;
25663;SDS011;13522;50.018;20.014;2023-12-20T23:27:16;7.55;;;2.88;;
25663;SDS011;13522;50.018;20.014;2023-12-20T23:30:29;7.33;;;2.40;;
25663;SDS011;13522;50.018;20.014;2023-12-20T23:33:43;4.73;;;2.65;;
25663;SDS011;13522;50.018;20.014;2023-12-20T23:36:58;6.83;;;2.33;;
25663;SDS011;13522;50.018;20.014;2023-12-20T23:40:11;4.78;;;2.35;;
25663;SDS011;13522;50.018;20.014;2023-12-20T23:43:24;6.15;;;2.23;;
25663;SDS011;13522;50.018;20.014;2023-12-20T23:46:37;4.45;;;2.28;;
25663;SDS011;13522;50.018;20.014;2023-12-20T23:49:50;4.18;;;2.23;;
25663;SDS011;13522;50.018;20.014;2023-12-20T23:53:03;8.08;;;2.43;;
25663;SDS011;13522;50.018;20.014;2023-12-20T23:56:18;5.88;;;2.58;;
25663;SDS011;13522;50.018;20.014;2023-12-20T23:59:33;5.48;;;2.30;;
